KLOM

Wings Field Airport

Philadelphia, Pennsylvania, USA
METAR KLOM 260355Z AUTO 22006KT 10SM CLR 22/18 A2990 RMK AO1
Observed Flight Rules
May-26 @ 03:55 UTC (22 minutes ago) Visual Flight Rules
Wind Visibility Clouds
220° at 6 knots 10 miles
  • Clear skies
Temperatures Readings
Current 22°C / 72°F
Dewpoint 18°C / 64°F
Humidity 78%
Altimeter 29.9" Hg
Pressure 1013 hPa
Elevation 92
METAR KLOM 260355Z AUTO 22006KT 10SM CLR 22/18 A2990 RMK AO1
Observed Flight Rules
May-26 @ 03:55 UTC
(22 minutes ago)
VFR
Wind Visibility
220° at 6 knots 10 miles
Clouds
  • Clear skies
Temperature Dewpoint
22°C / 72°F 18°C / 64°F
Humidity Altimeter Pressure
78% 29.9" Hg 1013 hPa